createdAt,value
2022-11-24T00:01:08.919Z,88.63
2022-11-24T00:03:41.236Z,88.02
2022-11-24T00:06:15.025Z,88.39
2022-11-24T00:08:47.919Z,88.44
2022-11-24T00:11:21.405Z,88.35
2022-11-24T00:13:53.841Z,87.94
2022-11-24T00:16:28.444Z,88.08
2022-11-24T00:19:02.342Z,88.30
2022-11-24T00:21:34.580Z,88.08
2022-11-24T00:24:06.847Z,87.88
2022-11-24T00:26:39.181Z,87.71
2022-11-24T00:29:12.494Z,87.37
2022-11-24T00:31:44.752Z,87.52
2022-11-24T00:34:17.145Z,87.48
2022-11-24T00:36:49.135Z,87.26
2022-11-24T00:39:21.504Z,87.45
2022-11-24T00:41:53.393Z,87.61
2022-11-24T00:44:25.333Z,87.98
2022-11-24T00:46:57.316Z,87.95
2022-11-24T00:49:29.334Z,87.86
2022-11-24T00:52:01.237Z,87.89
2022-11-24T00:54:33.275Z,87.70
2022-11-24T00:57:05.444Z,87.74
2022-11-24T00:59:37.417Z,87.76
2022-11-24T01:02:09.392Z,87.65
2022-11-24T01:04:41.418Z,87.68
2022-11-24T01:07:13.437Z,87.66
2022-11-24T01:09:45.952Z,87.69
2022-11-24T01:12:17.833Z,87.59
2022-11-24T01:14:49.697Z,87.60
2022-11-24T01:17:21.801Z,87.66
2022-11-24T01:19:53.700Z,87.82
2022-11-24T01:22:27.608Z,87.84
2022-11-24T01:24:59.570Z,87.93
2022-11-24T01:27:31.785Z,87.78
2022-11-24T01:30:03.816Z,87.76
2022-11-24T01:32:36.494Z,87.58
2022-11-24T01:35:09.954Z,87.77
2022-11-24T01:37:41.807Z,87.84
2022-11-24T01:40:15.002Z,87.75
2022-11-24T01:42:50.863Z,87.76
2022-11-24T01:45:45.987Z,87.78
2022-11-24T01:48:27.454Z,87.81
2022-11-24T01:51:08.568Z,87.70
2022-11-24T01:53:43.374Z,87.80
2022-11-24T01:56:16.237Z,87.92
2022-11-24T01:58:50.205Z,88.12
2022-11-24T02:01:22.359Z,88.01
2022-11-24T02:03:54.896Z,87.98
2022-11-24T02:06:30.419Z,87.92
2022-11-24T02:09:05.595Z,88.01
2022-11-24T02:11:40.152Z,87.85
2022-11-24T02:14:14.964Z,87.57
2022-11-24T02:16:49.989Z,87.28
2022-11-24T02:19:33.845Z,87.19
2022-11-24T02:22:10.202Z,87.47
2022-11-24T02:24:48.493Z,87.67
2022-11-24T02:27:21.434Z,87.55
2022-11-24T02:29:53.474Z,87.98
2022-11-24T02:32:26.075Z,87.89
2022-11-24T02:35:04.969Z,87.98
2022-11-24T02:37:36.877Z,87.92
2022-11-24T02:40:11.655Z,87.70
2022-11-24T02:42:47.675Z,87.96
2022-11-24T02:45:19.692Z,87.53
2022-11-24T02:47:51.575Z,87.70
2022-11-24T02:50:23.416Z,87.81
2022-11-24T02:52:55.342Z,88.10
2022-11-24T02:55:27.273Z,87.91
2022-11-24T02:57:59.707Z,87.69
2022-11-24T03:00:31.643Z,87.77
2022-11-24T03:03:03.560Z,87.63
2022-11-24T03:05:35.444Z,86.69
2022-11-24T03:08:07.752Z,86.90
2022-11-24T03:10:39.842Z,86.95
2022-11-24T03:13:12.323Z,86.70
2022-11-24T03:15:44.433Z,86.63
2022-11-24T03:18:16.435Z,86.69
2022-11-24T03:20:48.425Z,86.72
2022-11-24T03:23:20.308Z,87.12
2022-11-24T03:25:52.282Z,86.84
2022-11-24T03:28:24.189Z,86.87
2022-11-24T03:30:56.127Z,87.02
2022-11-24T03:33:28.009Z,86.98
2022-11-24T03:35:59.883Z,86.68
2022-11-24T03:38:32.228Z,86.70
2022-11-24T03:41:04.126Z,86.85
2022-11-24T03:43:40.439Z,86.79
2022-11-24T03:46:15.467Z,86.94
2022-11-24T03:48:47.416Z,86.96
2022-11-24T03:51:19.254Z,86.97
2022-11-24T03:53:51.110Z,86.95
2022-11-24T03:56:22.930Z,87.21
2022-11-24T03:58:54.762Z,87.25
2022-11-24T04:01:26.685Z,87.46
2022-11-24T04:03:58.805Z,87.15
2022-11-24T04:06:30.709Z,86.89
2022-11-24T04:09:04.001Z,86.91
2022-11-24T04:11:53.461Z,87.14
2022-11-24T04:14:25.393Z,87.40
2022-11-24T04:16:57.358Z,87.22
2022-11-24T04:19:29.195Z,87.47
2022-11-24T04:22:01.057Z,87.16
2022-11-24T04:24:33.170Z,87.16
2022-11-24T04:27:05.518Z,87.05
2022-11-24T04:29:37.448Z,86.64
2022-11-24T04:32:09.883Z,87.00
2022-11-24T04:34:42.048Z,87.22
2022-11-24T04:37:14.043Z,87.06
2022-11-24T04:39:46.537Z,87.03
2022-11-24T04:42:18.563Z,86.93
2022-11-24T04:44:50.987Z,87.04
2022-11-24T04:47:25.223Z,87.23
2022-11-24T04:49:57.808Z,87.06
2022-11-24T04:52:31.136Z,86.68
2022-11-24T04:55:03.962Z,86.98
2022-11-24T04:57:35.987Z,87.17
2022-11-24T05:00:11.724Z,87.14
2022-11-24T05:02:43.735Z,87.34
2022-11-24T05:05:15.886Z,87.76
2022-11-24T05:07:48.032Z,87.65
2022-11-24T05:10:38.739Z,87.94
2022-11-24T05:13:13.574Z,88.21
2022-11-24T05:15:45.510Z,87.98
2022-11-24T05:18:18.138Z,87.94
2022-11-24T05:20:50.224Z,87.80
2022-11-24T05:23:22.209Z,87.82
2022-11-24T05:25:55.247Z,88.12
2022-11-24T05:28:27.303Z,88.11
2022-11-24T05:31:02.968Z,88.13
2022-11-24T05:33:35.181Z,88.45
2022-11-24T05:36:08.837Z,88.48
2022-11-24T05:38:40.788Z,88.61
2022-11-24T05:41:12.638Z,88.73
2022-11-24T05:43:44.801Z,89.11
2022-11-24T05:46:16.814Z,89.12
2022-11-24T05:48:48.773Z,88.98
2022-11-24T05:51:20.743Z,88.96
2022-11-24T05:53:52.591Z,88.65
2022-11-24T05:56:25.267Z,88.69
2022-11-24T05:58:57.405Z,88.72
2022-11-24T06:01:29.369Z,88.97
2022-11-24T06:04:01.150Z,89.01
2022-11-24T06:06:33.036Z,89.07
2022-11-24T06:09:04.981Z,89.07
2022-11-24T06:11:37.064Z,89.26
2022-11-24T06:14:11.380Z,89.40
2022-11-24T06:16:43.835Z,89.45
2022-11-24T06:19:16.063Z,89.44
2022-11-24T06:21:48.126Z,89.60
2022-11-24T06:24:20.159Z,89.48
2022-11-24T06:26:52.261Z,89.70
2022-11-24T06:29:24.121Z,89.68
2022-11-24T06:31:55.904Z,89.74
2022-11-24T06:34:27.768Z,89.43
2022-11-24T06:36:59.830Z,89.12
2022-11-24T06:39:31.945Z,89.07
2022-11-24T06:42:04.694Z,89.08
2022-11-24T06:44:37.023Z,89.35
2022-11-24T06:47:09.124Z,88.99
2022-11-24T06:49:41.007Z,89.02
2022-11-24T06:52:13.018Z,89.02
2022-11-24T06:54:44.781Z,88.76
2022-11-24T06:57:16.665Z,88.50
2022-11-24T06:59:48.730Z,88.34
2022-11-24T07:02:22.999Z,88.13
2022-11-24T07:04:54.892Z,87.91
2022-11-24T07:07:26.873Z,87.42
2022-11-24T07:09:58.725Z,86.45
2022-11-24T07:12:34.537Z,87.05
2022-11-24T07:15:07.676Z,86.56
2022-11-24T07:17:40.408Z,86.23
2022-11-24T07:20:13.268Z,86.24
2022-11-24T07:22:45.101Z,86.32
2022-11-24T07:25:17.489Z,86.40
2022-11-24T07:27:50.357Z,86.56
2022-11-24T07:30:22.563Z,86.69
2022-11-24T07:32:59.502Z,86.52
2022-11-24T07:35:31.987Z,86.16
2022-11-24T07:38:03.908Z,85.50
2022-11-24T07:40:36.353Z,85.41
2022-11-24T07:43:08.260Z,85.28
2022-11-24T07:45:40.562Z,85.09
2022-11-24T07:48:12.368Z,85.64
2022-11-24T07:50:44.306Z,84.59
2022-11-24T07:53:16.764Z,84.56
2022-11-24T07:55:55.946Z,85.04
2022-11-24T07:58:32.394Z,85.41
2022-11-24T08:01:12.282Z,85.34
2022-11-24T08:03:44.856Z,85.11
2022-11-24T08:06:27.340Z,84.58
2022-11-24T08:09:02.742Z,84.78
2022-11-24T08:11:34.899Z,84.62
2022-11-24T08:14:07.334Z,84.32
2022-11-24T08:16:39.966Z,84.25
2022-11-24T08:19:12.402Z,84.13
2022-11-24T08:21:44.145Z,84.12
2022-11-24T08:24:17.052Z,83.82
2022-11-24T08:26:49.651Z,82.85
2022-11-24T08:29:21.824Z,82.31
2022-11-24T08:31:54.004Z,83.10
2022-11-24T08:34:28.212Z,82.35
2022-11-24T08:37:00.145Z,81.93
2022-11-24T08:39:32.501Z,82.01
2022-11-24T08:42:04.750Z,82.07
2022-11-24T08:44:37.209Z,81.74
2022-11-24T08:47:09.380Z,81.76
2022-11-24T08:49:42.019Z,82.32
2022-11-24T08:52:13.807Z,82.54
2022-11-24T08:54:46.928Z,82.85
2022-11-24T08:57:21.939Z,83.31
2022-11-24T08:59:53.992Z,82.85
2022-11-24T09:02:25.927Z,82.29
2022-11-24T09:04:57.910Z,81.89
2022-11-24T09:07:30.049Z,82.49
2022-11-24T09:10:02.021Z,82.53
2022-11-24T09:12:33.930Z,81.90
2022-11-24T09:15:06.128Z,82.01
2022-11-24T09:17:38.026Z,82.05
2022-11-24T09:20:11.056Z,81.79
2022-11-24T09:22:43.278Z,81.83
2022-11-24T09:25:15.096Z,81.90
2022-11-24T09:27:46.848Z,81.46
2022-11-24T09:30:19.074Z,81.51
2022-11-24T09:32:50.931Z,80.85
2022-11-24T09:35:22.925Z,80.27
2022-11-24T09:37:54.748Z,79.75
2022-11-24T09:40:26.848Z,79.83
2022-11-24T09:43:04.498Z,80.28
2022-11-24T09:46:05.482Z,80.38
2022-11-24T09:48:40.667Z,80.15
2022-11-24T09:51:15.910Z,80.10
2022-11-24T09:53:52.552Z,79.66
2022-11-24T09:56:26.061Z,80.12
2022-11-24T09:59:03.833Z,79.56
2022-11-24T10:01:38.206Z,79.39
2022-11-24T10:04:17.629Z,79.43
2022-11-24T10:06:59.349Z,78.23
2022-11-24T10:09:51.217Z,78.31
2022-11-24T10:12:35.649Z,78.26
2022-11-24T10:15:28.189Z,78.07
2022-11-24T10:18:16.730Z,78.54
2022-11-24T10:20:57.733Z,78.79
2022-11-24T10:23:51.554Z,77.60
2022-11-24T10:26:35.102Z,77.72
2022-11-24T10:29:21.231Z,77.51
2022-11-24T10:31:56.597Z,77.09
2022-11-24T10:34:35.608Z,77.41
2022-11-24T10:37:15.674Z,77.15
2022-11-24T10:40:00.219Z,77.01
2022-11-24T10:42:36.832Z,76.76
2022-11-24T10:45:15.118Z,77.59
2022-11-24T10:47:46.325Z,78.12
2022-11-24T10:50:24.394Z,78.43
2022-11-24T10:53:04.390Z,78.71
2022-11-24T10:56:06.984Z,78.08
2022-11-24T10:58:40.104Z,77.64
2022-11-24T11:01:29.857Z,78.32
2022-11-24T11:04:02.651Z,78.18
2022-11-24T11:06:36.447Z,78.33
2022-11-24T11:09:21.174Z,77.83
2022-11-24T11:11:56.922Z,78.03
2022-11-24T11:14:35.770Z,77.97
2022-11-24T11:17:33.822Z,77.49
2022-11-24T11:20:06.362Z,77.20
2022-11-24T11:22:40.040Z,77.87
2022-11-24T11:25:23.099Z,77.78
2022-11-24T11:28:19.095Z,77.57
2022-11-24T11:31:19.779Z,77.15
2022-11-24T11:34:06.229Z,77.55
2022-11-24T11:36:46.164Z,77.79
2022-11-24T11:39:33.266Z,77.94
2022-11-24T11:42:45.185Z,77.52
2022-11-24T11:45:16.396Z,78.13
2022-11-24T11:47:52.872Z,78.46
2022-11-24T11:50:31.501Z,78.26
2022-11-24T11:53:16.428Z,77.65
2022-11-24T11:55:58.714Z,77.25
2022-11-24T11:59:03.149Z,76.54
2022-11-24T12:01:55.028Z,76.31
2022-11-24T12:04:46.767Z,76.15
2022-11-24T12:07:43.463Z,76.47
2022-11-24T12:10:25.659Z,76.32
2022-11-24T12:13:23.183Z,75.89
2022-11-24T12:15:58.584Z,75.82
2022-11-24T12:18:57.156Z,75.32
2022-11-24T12:21:35.513Z,75.60
2022-11-24T12:24:19.016Z,75.70
2022-11-24T12:26:54.392Z,75.54
2022-11-24T12:29:46.200Z,75.66
2022-11-24T12:32:33.281Z,76.37
2022-11-24T12:35:16.598Z,76.20
2022-11-24T12:38:01.822Z,76.43
2022-11-24T12:40:47.182Z,76.06
2022-11-24T12:43:28.071Z,76.68
2022-11-24T12:46:05.578Z,77.40
2022-11-24T12:48:49.409Z,76.93
2022-11-24T12:51:26.978Z,77.40
2022-11-24T12:54:02.816Z,77.06
2022-11-24T12:56:42.623Z,76.92
2022-11-24T12:59:34.715Z,77.10
2022-11-24T13:02:21.418Z,77.52
2022-11-24T13:05:02.379Z,77.72
2022-11-24T13:07:45.662Z,77.37
2022-11-24T13:10:55.283Z,77.72
2022-11-24T13:13:50.160Z,77.83
2022-11-24T13:16:48.696Z,78.08
2022-11-24T13:19:20.724Z,78.07
2022-11-24T13:22:14.839Z,77.76
2022-11-24T13:24:47.243Z,78.11
2022-11-24T13:27:43.984Z,78.44
2022-11-24T13:30:49.614Z,78.65
2022-11-24T13:33:38.816Z,78.66
2022-11-24T13:36:34.131Z,78.60
2022-11-24T13:39:19.496Z,78.72
2022-11-24T13:42:41.476Z,78.88
2022-11-24T13:45:03.305Z,78.74
2022-11-24T13:47:41.115Z,79.05
2022-11-24T13:50:26.301Z,79.15
2022-11-24T13:53:09.504Z,78.97
2022-11-24T13:55:42.930Z,78.68
2022-11-24T13:58:35.553Z,79.21
2022-11-24T14:01:14.863Z,79.44
2022-11-24T14:07:07.929Z,79.74
2022-11-24T14:09:44.603Z,79.49
2022-11-24T14:12:20.420Z,79.45
2022-11-24T14:14:55.744Z,79.57
2022-11-24T14:17:29.027Z,79.92
2022-11-24T14:20:01.108Z,79.94
2022-11-24T14:22:40.342Z,79.89
2022-11-24T14:25:32.104Z,80.37
2022-11-24T14:28:04.067Z,80.27
2022-11-24T14:30:35.933Z,80.17
2022-11-24T14:33:13.820Z,80.16
2022-11-24T14:35:48.505Z,80.26
2022-11-24T14:38:20.433Z,80.28
2022-11-24T14:40:54.150Z,80.05
2022-11-24T14:43:29.871Z,79.93
2022-11-24T14:46:04.587Z,80.26
2022-11-24T14:48:39.812Z,79.95
2022-11-24T14:51:20.910Z,79.63
2022-11-24T14:53:56.481Z,79.70
2022-11-24T14:56:30.110Z,79.81
2022-11-24T14:59:02.176Z,80.21
2022-11-24T15:01:36.299Z,80.60
2022-11-24T15:04:38.818Z,81.00
2022-11-24T15:07:20.011Z,81.46
2022-11-24T15:09:54.185Z,81.80
2022-11-24T15:12:30.789Z,82.13
2022-11-24T15:15:05.255Z,82.21
2022-11-24T15:17:37.218Z,82.45
2022-11-24T15:20:18.107Z,82.59
2022-11-24T15:22:52.454Z,82.79
2022-11-24T15:25:33.782Z,82.71
2022-11-24T15:28:05.663Z,83.02
2022-11-24T15:30:38.221Z,83.31
2022-11-24T15:33:16.750Z,83.75
2022-11-24T15:35:48.835Z,84.17
2022-11-24T15:38:20.756Z,84.11
2022-11-24T15:40:55.045Z,84.28
2022-11-24T15:43:32.598Z,84.33
2022-11-24T15:46:05.755Z,84.29
2022-11-24T15:48:37.923Z,84.23
2022-11-24T15:51:15.857Z,83.91
2022-11-24T15:53:51.170Z,84.08
2022-11-24T15:56:27.359Z,84.00
2022-11-24T15:58:59.786Z,84.06
2022-11-24T16:01:33.964Z,84.16
2022-11-24T16:04:06.230Z,84.24
2022-11-24T16:06:38.190Z,84.65
2022-11-24T16:09:16.083Z,84.74
2022-11-24T16:11:48.387Z,84.75
2022-11-24T16:14:20.258Z,84.87
2022-11-24T16:16:52.431Z,84.73
2022-11-24T16:19:24.423Z,84.65
2022-11-24T16:21:56.332Z,84.74
2022-11-24T16:24:28.160Z,84.81
2022-11-24T16:26:59.984Z,84.90
2022-11-24T16:29:36.893Z,85.00
2022-11-24T16:32:08.793Z,84.95
2022-11-24T16:34:40.619Z,85.03
2022-11-24T16:37:12.898Z,85.29
2022-11-24T16:39:50.010Z,85.51
2022-11-24T16:42:22.280Z,85.41
2022-11-24T16:44:54.382Z,85.52
2022-11-24T16:47:26.311Z,85.48
2022-11-24T16:49:58.137Z,85.40
2022-11-24T16:52:30.145Z,85.60
2022-11-24T16:55:02.647Z,85.85
2022-11-24T16:57:35.371Z,85.80
2022-11-24T17:00:09.876Z,86.05
2022-11-24T17:02:41.994Z,85.86
2022-11-24T17:05:14.127Z,85.67
2022-11-24T17:07:46.050Z,85.70
2022-11-24T17:10:18.940Z,85.56
2022-11-24T17:12:50.820Z,85.68
2022-11-24T17:15:32.955Z,85.88
2022-11-24T17:18:24.185Z,85.92
2022-11-24T17:21:03.175Z,86.27
2022-11-24T17:23:38.153Z,86.36
2022-11-24T17:26:11.793Z,86.57
2022-11-24T17:28:44.262Z,86.75
2022-11-24T17:31:21.308Z,86.71
2022-11-24T17:33:54.482Z,86.71
2022-11-24T17:36:26.812Z,86.61
2022-11-24T17:39:01.502Z,86.54
2022-11-24T17:41:34.681Z,86.63
2022-11-24T17:44:08.653Z,86.32
2022-11-24T17:46:40.863Z,86.68
2022-11-24T17:49:13.324Z,86.49
2022-11-24T17:51:46.416Z,86.73
2022-11-24T17:57:12.198Z,86.68
2022-11-24T17:59:44.024Z,86.87
2022-11-24T18:02:16.206Z,86.94
2022-11-24T18:04:48.823Z,87.09
2022-11-24T18:07:20.737Z,87.08
2022-11-24T18:09:52.579Z,87.03
2022-11-24T18:12:24.397Z,86.79
2022-11-24T18:14:56.314Z,87.10
2022-11-24T18:17:29.171Z,87.09
2022-11-24T18:20:01.233Z,87.21
2022-11-24T18:22:57.773Z,87.18
2022-11-24T18:25:25.161Z,87.28
2022-11-24T18:27:57.359Z,87.62
2022-11-24T18:30:29.334Z,87.30
2022-11-24T18:33:02.146Z,87.32
2022-11-24T18:35:34.066Z,87.22
2022-11-24T18:38:05.943Z,87.05
2022-11-24T18:40:41.514Z,87.01
2022-11-24T18:43:13.637Z,87.12
2022-11-24T18:45:46.625Z,87.07
2022-11-24T18:48:18.532Z,86.68
2022-11-24T18:50:53.664Z,86.50
2022-11-24T18:53:26.840Z,86.82
2022-11-24T18:56:00.832Z,87.01
2022-11-24T18:58:34.129Z,87.14
2022-11-24T19:01:10.896Z,87.28
2022-11-24T19:03:48.695Z,87.21
2022-11-24T19:06:24.170Z,87.27
2022-11-24T19:08:56.969Z,87.46
2022-11-24T19:11:32.432Z,87.35
2022-11-24T19:14:05.550Z,87.39
2022-11-24T19:16:38.310Z,87.50
2022-11-24T19:19:11.759Z,87.85
2022-11-24T19:21:43.725Z,87.61
2022-11-24T19:24:15.582Z,87.18
2022-11-24T19:26:47.696Z,87.22
2022-11-24T19:29:19.673Z,87.18
2022-11-24T19:31:51.577Z,87.55
2022-11-24T19:34:23.575Z,87.67
2022-11-24T19:36:55.387Z,87.96
2022-11-24T19:39:27.493Z,87.99
2022-11-24T19:42:00.040Z,87.90
2022-11-24T19:44:31.954Z,87.82
2022-11-24T19:47:03.775Z,88.04
2022-11-24T19:49:35.637Z,87.90
2022-11-24T19:52:07.626Z,88.01
2022-11-24T19:54:39.423Z,88.24
2022-11-24T19:57:11.354Z,88.37
2022-11-24T19:59:43.447Z,88.12
2022-11-24T20:02:15.364Z,87.58
2022-11-24T20:04:47.247Z,88.02
2022-11-24T20:07:20.639Z,87.81
2022-11-24T20:09:52.599Z,87.83
2022-11-24T20:12:24.457Z,87.73
2022-11-24T20:14:56.711Z,88.12
2022-11-24T20:17:30.991Z,88.39
2022-11-24T20:20:02.991Z,88.24
2022-11-24T20:22:34.856Z,88.40
2022-11-24T20:25:08.128Z,88.30
2022-11-24T20:27:39.920Z,88.13
2022-11-24T20:30:13.877Z,87.83
2022-11-24T20:32:45.817Z,87.94
2022-11-24T20:35:18.516Z,87.59
2022-11-24T20:37:50.504Z,87.50
2022-11-24T20:40:22.354Z,87.45
2022-11-24T20:42:54.172Z,87.73
2022-11-24T20:45:27.576Z,87.61
2022-11-24T20:47:59.605Z,88.05
2022-11-24T20:50:31.381Z,88.16
2022-11-24T20:53:03.258Z,88.30
2022-11-24T20:55:35.051Z,88.35
2022-11-24T20:58:07.516Z,88.53
2022-11-24T21:00:39.466Z,88.74
2022-11-24T21:03:11.279Z,88.84
2022-11-24T21:05:43.169Z,89.01
2022-11-24T21:08:15.036Z,89.10
2022-11-24T21:10:56.304Z,88.86
2022-11-24T21:13:28.793Z,88.94
2022-11-24T21:16:00.773Z,89.12
2022-11-24T21:18:34.803Z,88.82
2022-11-24T21:21:07.049Z,89.05
2022-11-24T21:23:39.218Z,89.05
2022-11-24T21:26:16.645Z,89.30
2022-11-24T21:28:49.995Z,89.46
2022-11-24T21:31:23.061Z,89.52
2022-11-24T21:33:56.121Z,89.57
2022-11-24T21:36:28.376Z,89.71
2022-11-24T21:39:01.815Z,89.86
2022-11-24T21:41:34.992Z,89.71
2022-11-24T21:44:07.352Z,89.52
2022-11-24T21:46:44.997Z,89.22
2022-11-24T21:49:19.842Z,89.65
2022-11-24T21:51:55.461Z,89.45
2022-11-24T21:54:27.807Z,89.58
2022-11-24T21:56:59.620Z,89.64
2022-11-24T21:59:31.895Z,89.26
2022-11-24T22:02:05.846Z,89.24
2022-11-24T22:04:40.626Z,89.34
2022-11-24T22:07:12.469Z,89.57
2022-11-24T22:09:46.388Z,89.59
2022-11-24T22:12:18.665Z,89.78
2022-11-24T22:14:50.466Z,89.39
2022-11-24T22:17:22.598Z,89.60
2022-11-24T22:19:54.350Z,89.52
2022-11-24T22:22:26.116Z,89.98
2022-11-24T22:24:58.252Z,89.91
2022-11-24T22:27:30.012Z,89.37
2022-11-24T22:30:02.697Z,89.23
2022-11-24T22:32:34.547Z,89.24
2022-11-24T22:35:07.792Z,89.51
2022-11-24T22:37:40.147Z,89.76
2022-11-24T22:40:13.764Z,89.59
2022-11-24T22:42:45.748Z,89.57
2022-11-24T22:45:17.774Z,89.73
2022-11-24T22:47:49.707Z,89.31
2022-11-24T22:50:21.621Z,89.07
2022-11-24T22:52:53.923Z,89.07
2022-11-24T22:55:25.682Z,89.27
2022-11-24T22:57:57.685Z,89.20
2022-11-24T23:00:29.426Z,89.36
2022-11-24T23:03:01.246Z,89.26
2022-11-24T23:05:35.102Z,89.11
2022-11-24T23:08:07.399Z,89.23
2022-11-24T23:10:39.869Z,89.11
2022-11-24T23:13:11.683Z,89.61
2022-11-24T23:15:43.464Z,89.67
2022-11-24T23:18:15.261Z,89.32
2022-11-24T23:20:47.389Z,89.42
2022-11-24T23:23:19.369Z,89.18
2022-11-24T23:25:51.365Z,89.28
2022-11-24T23:28:23.136Z,89.69
2022-11-24T23:30:54.964Z,89.42
2022-11-24T23:33:26.722Z,89.22
2022-11-24T23:36:00.394Z,89.01
2022-11-24T23:38:33.442Z,89.03
2022-11-24T23:41:07.276Z,89.17
2022-11-24T23:43:40.332Z,89.12
2022-11-24T23:46:14.814Z,88.77
2022-11-24T23:48:47.328Z,88.56
2022-11-24T23:51:20.623Z,88.80
2022-11-24T23:53:53.043Z,88.95
2022-11-24T23:56:26.636Z,89.02
2022-11-24T23:58:58.372Z,89.06
